Terminal Aerodrome Forecast
Issued by NWS Hastings, NE

Home | Current Version | Previous Version | Text Only | Print | Product List | Glossary On
Versions: 1 2 3 4 5 6 7 8 9 10 11 12 13 14 15 16 17 18 19 20 21 22 23 24 25 26 27 28 29 30 31 32 33 34 35 36 37 38 39 40 41 42 43 44 45 46 47
000
FTUS43 KGID 251122
TAFGRI
TAF
KGRI 251122Z 2512/2612 28007KT P6SM BKN250
     FM251400 25006KT P6SM BKN140
     FM251700 22008KT P6SM BKN130
     FM252100 22014KT P6SM SCT100
     FM260000 22007KT P6SM SCT200
     FM261000 25008KT P6SM SCT200=

USA.gov is the U.S. government's official web portal to all federal, state and local government web resources and services.